weather.gov     
National Weather Service

Terminal Aerodrome Forecast
NWS Homepage
This page is being discontinued on March 12, 2014.
The same data is available at this site. Please update your bookmarks.
Thank you, and we apologize for the inconvenience.
Please send an email to SR-SRH.Webmaster@noaa.gov with any concerns.


Current Version
Previous Version:    01  02  03  04  05  06  07  08  09  10  11  12  13  14  15  16  17  18  19  20  21  22  23  24  25  26  27  
[Printable]
689
FTUS45 KGJT 302330
TAFEGE
TAF
KEGE 302330Z 3100/3124 33008KT P6SM -SHRA SCT050 BKN090
      TEMPO 3100/3102 VRB15G25KT -TSRA BKN050CB
     FM310200 09005KT P6SM VCSH SCT050 BKN090
      TEMPO 3102/3106 VRB10G20KT -SHRA BKN050
     FM311200 00000KT P6SM SCT090
     FM311800 30006KT P6SM VCTS SCT090CB BKN120
      AMD LTD TO CLD VIS AND WIND 3101/3113=




689
FTUS45 KGJT 302330
TAFEGE
TAF
KEGE 302330Z 3100/3124 33008KT P6SM -SHRA SCT050 BKN090
      TEMPO 3100/3102 VRB15G25KT -TSRA BKN050CB
     FM310200 09005KT P6SM VCSH SCT050 BKN090
      TEMPO 3102/3106 VRB10G20KT -SHRA BKN050
     FM311200 00000KT P6SM SCT090
     FM311800 30006KT P6SM VCTS SCT090CB BKN120
      AMD LTD TO CLD VIS AND WIND 3101/3113=


U.S. Dept. of Commerce
NOAA National Weather Service
1325 East West Highway
Silver Spring, MD 20910
E-mail: w-nws.webmaster@noaa.gov
Page last modified: May 16, 2007
NATIONAL WEATHER SERVICE: for Safety, for Work, for Fun - FOR LIFE